Time;durP1;ratioP1;P1;durP2;ratioP2;P2;SDS_P1;SDS_P2;PMS_P1;PMS_P2;Temp;Humidity;BMP_temperature;BMP_pressure;BME280_temperature;BME280_humidity;BME280_pressure;Samples;Min_cycle;Max_cycle;Signal;HPM_P1;HPM_P2
2022/07/13 00:01:46;;;;;;;10.38;4.63;;;;;;;;;;5043873;28;20025;-43
2022/07/13 00:04:12;;;;;;;8.50;4.85;;;;;;;;;;5046926;28;20028;-46
2022/07/13 00:06:38;;;;;;;11.45;5.10;;;;;;;;;;5045341;28;20430;-43
2022/07/13 00:09:04;;;;;;;5.50;4.68;;;;;;;;;;5041749;28;20709;-43
2022/07/13 00:11:29;;;;;;;8.70;5.10;;;;;;;;;;5044203;28;20482;-44
2022/07/13 00:13:56;;;;;;;8.57;4.97;;;;;;;;;;5045153;28;20079;-43
2022/07/13 00:16:21;;;;;;;8.15;4.60;;;;;;;;;;5041018;28;20386;-45
2022/07/13 00:18:47;;;;;;;8.02;4.53;;;;;;;;;;5044295;28;20032;-42
2022/07/13 00:21:13;;;;;;;8.48;4.10;;;;;;;;;;5041602;28;20057;-43
2022/07/13 00:23:39;;;;;;;5.95;4.45;;;;;;;;;;5044616;28;20044;-43
2022/07/13 00:26:05;;;;;;;8.40;4.22;;;;;;;;;;5041386;28;20561;-42
2022/07/13 00:28:30;;;;;;;9.98;4.55;;;;;;;;;;5047319;28;20045;-45
2022/07/13 00:30:56;;;;;;;8.38;4.30;;;;;;;;;;5044514;28;20036;-45
2022/07/13 00:33:22;;;;;;;9.80;4.45;;;;;;;;;;5045310;28;20095;-46
2022/07/13 00:35:47;;;;;;;11.43;4.32;;;;;;;;;;5046060;28;20104;-42
2022/07/13 00:38:13;;;;;;;7.00;4.53;;;;;;;;;;5040485;28;20025;-42
2022/07/13 00:40:39;;;;;;;7.50;4.53;;;;;;;;;;5044273;28;20100;-46
2022/07/13 00:43:04;;;;;;;5.95;4.05;;;;;;;;;;5043942;28;20484;-43
2022/07/13 00:45:31;;;;;;;5.55;4.18;;;;;;;;;;5045755;28;20078;-42
2022/07/13 00:47:58;;;;;;;5.57;4.38;;;;;;;;;;5045065;28;20033;-43
2022/07/13 00:50:24;;;;;;;9.75;4.68;;;;;;;;;;5044050;28;20681;-47
2022/07/13 00:52:50;;;;;;;10.65;4.50;;;;;;;;;;5040725;28;20030;-42
2022/07/13 00:55:17;;;;;;;8.80;4.53;;;;;;;;;;5045122;28;20436;-45
2022/07/13 00:57:42;;;;;;;7.15;4.55;;;;;;;;;;5044697;28;20031;-47
2022/07/13 01:00:13;;;;;;;8.05;3.92;;;;;;;;;;5042773;28;20030;-45
2022/07/13 01:02:41;;;;;;;6.68;4.38;;;;;;;;;;5042947;28;20119;-42
2022/07/13 01:05:08;;;;;;;7.07;4.32;;;;;;;;;;5045203;28;20044;-43
2022/07/13 01:07:34;;;;;;;7.68;4.13;;;;;;;;;;5043135;28;20029;-42
2022/07/13 01:10:01;;;;;;;5.32;4.03;;;;;;;;;;5043120;28;20550;-42
2022/07/13 01:12:29;;;;;;;6.53;3.90;;;;;;;;;;5044367;28;20068;-42
2022/07/13 01:14:56;;;;;;;8.25;4.80;;;;;;;;;;5043511;28;20033;-44
2022/07/13 01:17:23;;;;;;;4.35;3.63;;;;;;;;;;5044050;28;20033;-44
2022/07/13 01:19:49;;;;;;;3.90;3.60;;;;;;;;;;5047624;28;20025;-42
2022/07/13 01:22:20;;;;;;;5.80;3.95;;;;;;;;;;5039759;28;20111;-46
2022/07/13 01:24:48;;;;;;;5.88;4.05;;;;;;;;;;5039164;28;20025;-44
2022/07/13 01:27:14;;;;;;;4.78;4.00;;;;;;;;;;5044787;28;20044;-43
2022/07/13 01:29:40;;;;;;;8.93;4.20;;;;;;;;;;5042402;28;21816;-43
2022/07/13 01:32:06;;;;;;;7.70;4.13;;;;;;;;;;5041677;28;20037;-43
2022/07/13 01:34:32;;;;;;;6.43;4.00;;;;;;;;;;5045159;28;20539;-46
2022/07/13 01:36:59;;;;;;;8.88;3.92;;;;;;;;;;5045613;28;20037;-47
2022/07/13 01:39:25;;;;;;;6.70;3.95;;;;;;;;;;5044872;28;20036;-43
2022/07/13 01:41:50;;;;;;;6.10;4.18;;;;;;;;;;5043781;28;20033;-49
2022/07/13 01:44:17;;;;;;;6.72;4.20;;;;;;;;;;5041684;28;20036;-44
2022/07/13 01:46:42;;;;;;;6.15;3.85;;;;;;;;;;5040454;28;20029;-42
2022/07/13 01:49:08;;;;;;;11.85;3.90;;;;;;;;;;5039297;28;20044;-45
2022/07/13 01:51:34;;;;;;;10.70;3.92;;;;;;;;;;5044704;28;20496;-50
2022/07/13 01:54:00;;;;;;;9.55;3.95;;;;;;;;;;5042093;28;20443;-43
2022/07/13 01:56:26;;;;;;;6.45;4.03;;;;;;;;;;5043434;28;20413;-42
2022/07/13 01:58:51;;;;;;;8.98;4.47;;;;;;;;;;5047997;28;20056;-43
2022/07/13 02:01:17;;;;;;;7.00;3.85;;;;;;;;;;5038982;28;20032;-42
2022/07/13 02:03:43;;;;;;;4.30;3.90;;;;;;;;;;5044208;28;20047;-43
2022/07/13 02:06:09;;;;;;;6.00;3.80;;;;;;;;;;5040106;28;20056;-46
2022/07/13 02:08:35;;;;;;;5.85;3.13;;;;;;;;;;5043725;28;20457;-45
2022/07/13 02:11:00;;;;;;;6.00;4.00;;;;;;;;;;5040191;28;20064;-42
2022/07/13 02:13:26;;;;;;;4.93;3.72;;;;;;;;;;5042128;28;20090;-42
2022/07/13 02:15:52;;;;;;;7.75;3.75;;;;;;;;;;5040574;28;20032;-42
2022/07/13 02:18:18;;;;;;;8.32;3.88;;;;;;;;;;5039876;28;20029;-44
2022/07/13 02:20:44;;;;;;;4.82;3.60;;;;;;;;;;5040200;28;20048;-42
2022/07/13 02:23:10;;;;;;;7.05;3.80;;;;;;;;;;5040508;28;20040;-43
2022/07/13 02:25:37;;;;;;;6.63;4.15;;;;;;;;;;5039201;28;20042;-43
2022/07/13 02:28:05;;;;;;;4.90;3.83;;;;;;;;;;5044566;28;20143;-43
2022/07/13 02:30:30;;;;;;;5.50;3.80;;;;;;;;;;5036609;28;20400;-42
2022/07/13 02:32:57;;;;;;;4.40;3.75;;;;;;;;;;5039183;28;20037;-43
2022/07/13 02:35:23;;;;;;;5.75;3.75;;;;;;;;;;5044527;28;20056;-49
2022/07/13 02:37:48;;;;;;;9.77;3.92;;;;;;;;;;5038518;28;20560;-44
2022/07/13 02:40:14;;;;;;;5.20;3.35;;;;;;;;;;5042943;28;20025;-44
2022/07/13 02:42:40;;;;;;;6.88;3.80;;;;;;;;;;5042788;28;20029;-48
2022/07/13 02:45:07;;;;;;;4.75;4.10;;;;;;;;;;5043667;28;20539;-47
2022/07/13 02:47:32;;;;;;;8.20;3.90;;;;;;;;;;5041661;28;20634;-47
2022/07/13 02:49:58;;;;;;;5.13;3.75;;;;;;;;;;5038592;28;20034;-45
2022/07/13 02:52:24;;;;;;;4.05;3.70;;;;;;;;;;5042353;28;20036;-47
2022/07/13 02:54:50;;;;;;;4.30;3.65;;;;;;;;;;5038250;28;20037;-42
2022/07/13 02:57:15;;;;;;;6.38;4.28;;;;;;;;;;5042055;28;20024;-47
2022/07/13 02:59:41;;;;;;;8.32;3.95;;;;;;;;;;5043926;28;20076;-49
2022/07/13 03:02:07;;;;;;;4.72;4.30;;;;;;;;;;5040933;28;20029;-45
2022/07/13 03:04:34;;;;;;;7.13;4.28;;;;;;;;;;5044165;28;20025;-44
2022/07/13 03:07:01;;;;;;;4.25;3.90;;;;;;;;;;5040251;28;20466;-42
2022/07/13 03:09:27;;;;;;;7.45;3.65;;;;;;;;;;5043377;28;20068;-49
2022/07/13 03:11:53;;;;;;;9.68;3.90;;;;;;;;;;5044038;28;20452;-43
2022/07/13 03:14:19;;;;;;;7.88;4.00;;;;;;;;;;5038160;28;20103;-41
2022/07/13 03:16:44;;;;;;;4.95;4.03;;;;;;;;;;5042247;28;20048;-44
2022/07/13 03:19:10;;;;;;;6.18;3.72;;;;;;;;;;5043076;28;20466;-43
2022/07/13 03:21:36;;;;;;;5.93;3.70;;;;;;;;;;5039521;28;20029;-47
2022/07/13 03:24:02;;;;;;;10.20;4.43;;;;;;;;;;5038788;28;20033;-46
2022/07/13 03:26:28;;;;;;;9.75;3.97;;;;;;;;;;5043624;28;20051;-42
2022/07/13 03:28:54;;;;;;;3.80;3.50;;;;;;;;;;5043987;28;20033;-43
2022/07/13 03:31:20;;;;;;;4.25;3.85;;;;;;;;;;5043107;28;20075;-45
2022/07/13 03:33:47;;;;;;;3.80;3.42;;;;;;;;;;5044823;28;20033;-43
2022/07/13 03:36:13;;;;;;;5.22;3.92;;;;;;;;;;5040409;28;21655;-48
2022/07/13 03:38:38;;;;;;;6.65;3.65;;;;;;;;;;5042288;28;20028;-46
2022/07/13 03:41:04;;;;;;;4.00;3.47;;;;;;;;;;5040136;28;20600;-47
2022/07/13 03:43:31;;;;;;;5.18;3.67;;;;;;;;;;5041630;28;20460;-44
2022/07/13 03:45:57;;;;;;;6.18;3.28;;;;;;;;;;5042385;28;20021;-47
2022/07/13 03:48:22;;;;;;;4.20;3.67;;;;;;;;;;5041748;28;20033;-42
2022/07/13 03:50:49;;;;;;;12.65;3.95;;;;;;;;;;5041434;28;20063;-44
2022/07/13 03:53:15;;;;;;;6.82;4.00;;;;;;;;;;5039206;28;20033;-41
2022/07/13 03:55:42;;;;;;;5.35;3.33;;;;;;;;;;5038764;28;20033;-48
2022/07/13 03:58:10;;;;;;;5.88;3.45;;;;;;;;;;5041204;28;20025;-43
2022/07/13 04:00:36;;;;;;;10.00;3.78;;;;;;;;;;5040466;28;20037;-45
2022/07/13 04:03:02;;;;;;;6.22;3.50;;;;;;;;;;5040606;28;20531;-45
2022/07/13 04:05:29;;;;;;;6.90;3.35;;;;;;;;;;5040499;28;20025;-44
2022/07/13 04:07:54;;;;;;;5.13;2.95;;;;;;;;;;5040432;28;20106;-45
2022/07/13 04:10:20;;;;;;;6.65;3.42;;;;;;;;;;5040607;28;20036;-47
2022/07/13 04:12:46;;;;;;;7.20;3.70;;;;;;;;;;5039392;28;20412;-43
2022/07/13 04:15:19;;;;;;;4.80;3.47;;;;;;;;;;5040333;28;20037;-47
2022/07/13 04:18:04;;;;;;;10.25;3.88;;;;;;;;;;5040704;28;20041;-44
2022/07/13 04:20:50;;;;;;;5.55;2.92;;;;;;;;;;5039492;28;20052;-41
2022/07/13 04:23:36;;;;;;;4.93;3.25;;;;;;;;;;5040255;28;20489;-42
2022/07/13 04:26:22;;;;;;;6.25;3.42;;;;;;;;;;5040201;28;20035;-42
2022/07/13 04:29:07;;;;;;;4.70;3.10;;;;;;;;;;5040735;28;20040;-44
2022/07/13 04:31:52;;;;;;;7.35;3.53;;;;;;;;;;5038625;28;20444;-44
2022/07/13 04:34:38;;;;;;;9.70;3.20;;;;;;;;;;5042081;28;20036;-41
2022/07/13 04:37:23;;;;;;;4.57;3.20;;;;;;;;;;5038615;28;20122;-42
2022/07/13 04:40:07;;;;;;;7.13;3.03;;;;;;;;;;5041293;28;20125;-44
2022/07/13 04:42:45;;;;;;;4.57;2.78;;;;;;;;;;5037708;28;20026;-43
2022/07/13 04:45:12;;;;;;;4.28;3.03;;;;;;;;;;5026030;28;20056;-44
2022/07/13 04:47:38;;;;;;;8.02;3.10;;;;;;;;;;5041099;28;20044;-44
2022/07/13 04:50:05;;;;;;;4.72;3.00;;;;;;;;;;5044079;28;20041;-44
2022/07/13 04:52:31;;;;;;;5.43;2.97;;;;;;;;;;5042760;28;20131;-43
2022/07/13 04:54:57;;;;;;;3.15;2.95;;;;;;;;;;5041348;28;20116;-42
2022/07/13 04:57:22;;;;;;;5.78;3.50;;;;;;;;;;5043706;28;20048;-45
2022/07/13 04:59:48;;;;;;;3.83;3.20;;;;;;;;;;5048045;28;20485;-43
2022/07/13 05:02:14;;;;;;;3.45;2.88;;;;;;;;;;5043112;28;20033;-42
2022/07/13 05:04:39;;;;;;;4.13;3.38;;;;;;;;;;5044144;28;20091;-43
2022/07/13 05:07:05;;;;;;;6.57;3.40;;;;;;;;;;5040677;28;20028;-42
2022/07/13 05:09:31;;;;;;;3.63;3.22;;;;;;;;;;5044311;28;20030;-45
2022/07/13 05:11:56;;;;;;;6.68;3.05;;;;;;;;;;5043839;28;20144;-43
2022/07/13 05:14:22;;;;;;;5.63;3.08;;;;;;;;;;5040473;28;20037;-43
2022/07/13 05:16:48;;;;;;;5.63;3.20;;;;;;;;;;5044115;28;20470;-44
2022/07/13 05:19:14;;;;;;;9.10;3.50;;;;;;;;;;5042028;28;20801;-46
2022/07/13 05:21:39;;;;;;;12.68;4.43;;;;;;;;;;5042796;28;20025;-47
2022/07/13 05:24:05;;;;;;;10.23;3.13;;;;;;;;;;5042721;28;20042;-46
2022/07/13 05:26:31;;;;;;;8.77;2.83;;;;;;;;;;5039912;28;20060;-43
2022/07/13 05:28:57;;;;;;;8.80;2.90;;;;;;;;;;5040650;28;20032;-42
2022/07/13 05:31:23;;;;;;;8.15;3.85;;;;;;;;;;5041548;28;20048;-42
2022/07/13 05:33:49;;;;;;;4.43;3.15;;;;;;;;;;5040657;28;20029;-44
2022/07/13 05:36:14;;;;;;;7.78;3.20;;;;;;;;;;5040211;28;20056;-44
2022/07/13 05:38:40;;;;;;;11.32;3.13;;;;;;;;;;5038494;28;20037;-47
2022/07/13 05:41:06;;;;;;;15.50;3.17;;;;;;;;;;5043860;28;20439;-44
2022/07/13 05:43:32;;;;;;;9.93;3.53;;;;;;;;;;5042983;28;20052;-43
2022/07/13 05:45:57;;;;;;;8.07;3.47;;;;;;;;;;5038348;28;20409;-41
2022/07/13 05:48:23;;;;;;;10.43;3.20;;;;;;;;;;5038597;28;20120;-47
2022/07/13 05:50:51;;;;;;;6.35;3.05;;;;;;;;;;5039781;28;20155;-44
2022/07/13 05:53:19;;;;;;;6.47;2.90;;;;;;;;;;5040542;28;20517;-45
2022/07/13 05:55:44;;;;;;;7.60;3.25;;;;;;;;;;5039010;28;20036;-42
2022/07/13 05:58:10;;;;;;;7.45;2.72;;;;;;;;;;5034483;28;20545;-42
2022/07/13 06:00:36;;;;;;;8.65;3.03;;;;;;;;;;5039096;28;20078;-44
2022/07/13 06:03:01;;;;;;;6.93;2.70;;;;;;;;;;5038135;28;20043;-46
2022/07/13 06:05:28;;;;;;;6.70;2.70;;;;;;;;;;5040343;28;20025;-44
2022/07/13 06:07:55;;;;;;;7.18;2.80;;;;;;;;;;5039129;28;20036;-42
2022/07/13 06:10:21;;;;;;;3.85;2.72;;;;;;;;;;5038894;28;20178;-46
2022/07/13 06:12:47;;;;;;;4.80;2.70;;;;;;;;;;5043010;28;22335;-43
2022/07/13 06:15:13;;;;;;;6.60;2.95;;;;;;;;;;5041502;28;20033;-42
2022/07/13 06:17:38;;;;;;;4.85;2.63;;;;;;;;;;5041908;28;20024;-44
2022/07/13 06:20:05;;;;;;;3.42;2.70;;;;;;;;;;5040516;28;20039;-42
2022/07/13 06:22:31;;;;;;;7.65;2.85;;;;;;;;;;5041611;28;20401;-45
2022/07/13 06:24:57;;;;;;;8.32;2.55;;;;;;;;;;5038249;28;20025;-43
2022/07/13 06:27:23;;;;;;;9.98;2.88;;;;;;;;;;5022858;28;20051;-45
2022/07/13 06:29:49;;;;;;;7.55;2.65;;;;;;;;;;5042204;28;20054;-44
2022/07/13 06:32:14;;;;;;;6.55;3.08;;;;;;;;;;5043343;28;20098;-46
2022/07/13 06:34:40;;;;;;;9.38;2.78;;;;;;;;;;5039436;28;20033;-45
2022/07/13 06:37:07;;;;;;;7.00;2.95;;;;;;;;;;5042270;28;20058;-45
2022/07/13 06:39:33;;;;;;;9.32;3.22;;;;;;;;;;5041376;28;20021;-44
2022/07/13 06:41:59;;;;;;;10.45;3.20;;;;;;;;;;5040197;28;20021;-47
2022/07/13 06:44:25;;;;;;;5.85;2.80;;;;;;;;;;5040276;28;20029;-42
2022/07/13 06:46:51;;;;;;;4.63;3.05;;;;;;;;;;5040950;28;22011;-42
2022/07/13 06:49:16;;;;;;;8.68;3.13;;;;;;;;;;5041252;28;20036;-42
2022/07/13 06:51:42;;;;;;;3.88;3.10;;;;;;;;;;5042716;28;20029;-47
2022/07/13 06:54:08;;;;;;;6.28;3.00;;;;;;;;;;5041937;28;20028;-47
2022/07/13 06:56:34;;;;;;;7.32;3.00;;;;;;;;;;5038092;28;20031;-42
2022/07/13 06:58:59;;;;;;;6.47;2.60;;;;;;;;;;5040388;28;20088;-42
2022/07/13 07:01:25;;;;;;;3.45;2.55;;;;;;;;;;5041075;28;20163;-42
2022/07/13 07:03:51;;;;;;;3.60;2.33;;;;;;;;;;5041725;28;20029;-43
2022/07/13 07:06:17;;;;;;;4.68;2.30;;;;;;;;;;5039340;28;20038;-44
2022/07/13 07:08:42;;;;;;;2.88;2.38;;;;;;;;;;5038806;28;20052;-42
2022/07/13 07:11:08;;;;;;;4.13;2.15;;;;;;;;;;5042162;28;20068;-43
2022/07/13 07:13:34;;;;;;;4.88;2.22;;;;;;;;;;5038314;28;20476;-42
2022/07/13 07:16:00;;;;;;;4.22;2.38;;;;;;;;;;5039036;28;20108;-43
2022/07/13 07:18:27;;;;;;;6.88;2.53;;;;;;;;;;5033134;28;20044;-44
2022/07/13 07:20:52;;;;;;;6.82;2.55;;;;;;;;;;5034778;28;20120;-47
2022/07/13 07:23:18;;;;;;;3.85;2.80;;;;;;;;;;5039088;28;20120;-43
2022/07/13 07:25:44;;;;;;;9.98;2.42;;;;;;;;;;5039610;28;20103;-46
2022/07/13 07:28:10;;;;;;;6.97;2.78;;;;;;;;;;5040096;28;20451;-42
2022/07/13 07:30:36;;;;;;;5.10;3.00;;;;;;;;;;5045118;28;20033;-42
2022/07/13 07:33:02;;;;;;;10.52;2.72;;;;;;;;;;5040284;28;20097;-44
2022/07/13 07:35:28;;;;;;;3.58;2.67;;;;;;;;;;5040261;28;20024;-44
2022/07/13 07:37:54;;;;;;;6.00;2.85;;;;;;;;;;5040775;28;20419;-47
2022/07/13 07:40:19;;;;;;;4.68;2.85;;;;;;;;;;5037482;28;20028;-44
2022/07/13 07:42:45;;;;;;;6.80;2.60;;;;;;;;;;5040574;28;20413;-43
2022/07/13 07:45:11;;;;;;;5.50;2.90;;;;;;;;;;5042298;28;20381;-43
2022/07/13 07:47:38;;;;;;;15.65;3.40;;;;;;;;;;5037742;28;20038;-46
2022/07/13 07:50:06;;;;;;;5.13;2.78;;;;;;;;;;5037204;28;20033;-43
2022/07/13 07:52:32;;;;;;;5.00;2.90;;;;;;;;;;5036474;28;20079;-42
2022/07/13 07:54:58;;;;;;;4.47;2.65;;;;;;;;;;5037272;28;20038;-43
2022/07/13 07:57:23;;;;;;;4.03;2.65;;;;;;;;;;5042015;28;20044;-45
2022/07/13 07:59:49;;;;;;;6.50;2.97;;;;;;;;;;5039705;28;20461;-46
2022/07/13 08:02:14;;;;;;;7.80;2.63;;;;;;;;;;5037076;28;20029;-45
2022/07/13 08:04:40;;;;;;;5.32;2.90;;;;;;;;;;5043278;28;20756;-44
2022/07/13 08:07:07;;;;;;;10.95;2.50;;;;;;;;;;5037845;28;20025;-42
2022/07/13 08:09:34;;;;;;;6.68;2.63;;;;;;;;;;5039459;28;20044;-43
2022/07/13 08:12:02;;;;;;;6.45;2.63;;;;;;;;;;5038316;28;20056;-44
2022/07/13 08:14:29;;;;;;;10.63;2.70;;;;;;;;;;5039119;28;20025;-43
2022/07/13 08:16:55;;;;;;;7.78;2.80;;;;;;;;;;5033433;28;20041;-42
2022/07/13 08:19:21;;;;;;;10.35;3.00;;;;;;;;;;5033811;28;20025;-43
2022/07/13 08:21:47;;;;;;;4.85;2.95;;;;;;;;;;5036825;28;20020;-42
2022/07/13 08:24:12;;;;;;;6.80;3.00;;;;;;;;;;5041152;28;20180;-42
2022/07/13 08:26:38;;;;;;;5.43;2.70;;;;;;;;;;5039324;28;20124;-43
2022/07/13 08:29:05;;;;;;;12.50;2.95;;;;;;;;;;5038257;28;20171;-44
2022/07/13 08:31:30;;;;;;;3.78;2.78;;;;;;;;;;5039152;28;20041;-43
2022/07/13 08:39:26;;;;;;;8.70;3.63;;;;;;;;;;5042334;28;20524;-46
2022/07/13 08:41:52;;;;;;;4.10;2.85;;;;;;;;;;5040824;28;20043;-44
2022/07/13 08:44:18;;;;;;;5.85;3.30;;;;;;;;;;5039937;28;20029;-45
2022/07/13 08:46:44;;;;;;;9.05;3.00;;;;;;;;;;5040891;28;20064;-42
2022/07/13 08:49:10;;;;;;;7.80;2.65;;;;;;;;;;5039943;28;20313;-45
2022/07/13 08:51:36;;;;;;;8.85;3.30;;;;;;;;;;5040929;28;20033;-47
2022/07/13 08:54:05;;;;;;;6.55;2.92;;;;;;;;;;5023239;28;20052;-42
2022/07/13 08:56:32;;;;;;;4.95;2.75;;;;;;;;;;5039306;28;20036;-42
2022/07/13 08:58:59;;;;;;;8.05;3.45;;;;;;;;;;5042032;28;20075;-50
2022/07/13 09:01:25;;;;;;;7.82;3.15;;;;;;;;;;5038180;28;20076;-46
2022/07/13 09:03:51;;;;;;;11.80;3.28;;;;;;;;;;5039270;28;20083;-42
2022/07/13 09:06:39;;;;;;;8.65;3.20;;;;;;;;;;5027418;28;20025;-46
2022/07/13 09:09:24;;;;;;;9.02;3.10;;;;;;;;;;5038251;28;20025;-43
2022/07/13 09:11:50;;;;;;;12.65;3.22;;;;;;;;;;5035422;28;20481;-43
2022/07/13 09:14:25;;;;;;;14.25;3.30;;;;;;;;;;5042120;28;20044;-42
2022/07/13 09:16:52;;;;;;;3.38;2.78;;;;;;;;;;5044207;28;20044;-42
2022/07/13 09:19:23;;;;;;;8.30;3.20;;;;;;;;;;5038593;28;20571;-46
2022/07/13 09:21:48;;;;;;;4.53;3.13;;;;;;;;;;5040999;28;20028;-43
2022/07/13 09:24:14;;;;;;;3.38;2.50;;;;;;;;;;5039729;28;20029;-42
2022/07/13 09:26:44;;;;;;;9.85;3.30;;;;;;;;;;5039958;28;20041;-43
2022/07/13 09:29:12;;;;;;;5.68;2.78;;;;;;;;;;5043694;28;20060;-45
2022/07/13 09:31:58;;;;;;;5.78;3.22;;;;;;;;;;5036723;28;20523;-45
2022/07/13 09:34:50;;;;;;;6.25;3.13;;;;;;;;;;5032714;28;20488;-43
2022/07/13 09:37:24;;;;;;;7.07;3.25;;;;;;;;;;5039188;28;20036;-42
2022/07/13 09:40:01;;;;;;;6.53;2.97;;;;;;;;;;5041012;28;20029;-44
2022/07/13 09:42:30;;;;;;;5.25;2.80;;;;;;;;;;5045166;28;20044;-44
2022/07/13 09:48:00;;;;;;;6.47;3.05;;;;;;;;;;5043451;28;20044;-43
2022/07/13 09:50:39;;;;;;;5.68;3.05;;;;;;;;;;5039495;28;20025;-49
2022/07/13 09:53:41;;;;;;;9.38;2.95;;;;;;;;;;5043042;28;20032;-44
2022/07/13 09:56:10;;;;;;;;;;;;;;;;;;4992905;28;20592;-48
2022/07/13 09:58:39;;;;;;;8.95;3.20;;;;;;;;;;4994363;28;20060;-44
2022/07/13 10:01:06;;;;;;;3.22;2.80;;;;;;;;;;4995551;28;20080;-46
2022/07/13 10:03:32;;;;;;;4.88;2.30;;;;;;;;;;4994923;28;20038;-46
2022/07/13 10:06:00;;;;;;;5.00;2.30;;;;;;;;;;4993658;28;20422;-43
2022/07/13 10:08:26;;;;;;;4.60;2.45;;;;;;;;;;4991629;28;20100;-51
2022/07/13 10:10:52;;;;;;;8.90;2.90;;;;;;;;;;4997038;28;20147;-43
2022/07/13 10:13:19;;;;;;;7.13;2.60;;;;;;;;;;4991142;28;20536;-45
2022/07/13 10:15:45;;;;;;;8.07;2.80;;;;;;;;;;4995882;28;20689;-43
2022/07/13 10:18:39;;;;;;;6.60;2.90;;;;;;;;;;4990390;28;20165;-42
2022/07/13 10:21:42;;;;;;;4.88;2.58;;;;;;;;;;4992881;28;20411;-42
2022/07/13 10:24:17;;;;;;;8.43;2.78;;;;;;;;;;4996306;28;20044;-43
2022/07/13 10:26:43;;;;;;;6.18;2.63;;;;;;;;;;4995703;28;20395;-42
2022/07/13 10:29:10;;;;;;;6.93;2.47;;;;;;;;;;5001024;28;20409;-43
2022/07/13 10:31:38;;;;;;;6.20;2.95;;;;;;;;;;5043059;28;20144;-43
2022/07/13 10:34:05;;;;;;;6.70;3.03;;;;;;;;;;5042674;28;20025;-45
2022/07/13 10:36:55;;;;;;;12.73;3.33;;;;;;;;;;5037530;28;20028;-45
2022/07/13 10:39:23;;;;;;;10.25;2.35;;;;;;;;;;5038344;28;20086;-43
2022/07/13 10:42:02;;;;;;;8.63;2.30;;;;;;;;;;5033105;28;20029;-44
2022/07/13 10:44:38;;;;;;;4.35;2.22;;;;;;;;;;5034558;28;20482;-49
2022/07/13 10:47:12;;;;;;;4.43;2.38;;;;;;;;;;5039113;28;20029;-43
2022/07/13 10:49:41;;;;;;;4.75;2.45;;;;;;;;;;5035298;28;20603;-45
2022/07/13 10:52:22;;;;;;;4.30;2.40;;;;;;;;;;5037099;28;20366;-45
2022/07/13 10:55:03;;;;;;;8.93;2.40;;;;;;;;;;5038119;28;20032;-43
2022/07/13 10:57:39;;;;;;;6.07;2.47;;;;;;;;;;5037736;28;20404;-43
2022/07/13 11:00:18;;;;;;;9.30;2.70;;;;;;;;;;5044672;28;20441;-43
2022/07/13 11:02:53;;;;;;;4.68;2.30;;;;;;;;;;5039989;28;20114;-47
2022/07/13 11:05:21;;;;;;;6.43;2.40;;;;;;;;;;5037088;28;20030;-42
2022/07/13 11:07:48;;;;;;;4.82;2.53;;;;;;;;;;5034094;28;20029;-42
2022/07/13 11:10:22;;;;;;;6.97;2.65;;;;;;;;;;5037627;28;20117;-47
2022/07/13 11:13:09;;;;;;;4.28;2.13;;;;;;;;;;5037115;28;20424;-43
2022/07/13 11:15:45;;;;;;;4.57;2.45;;;;;;;;;;5034244;28;20529;-45
2022/07/13 11:18:22;;;;;;;3.53;2.40;;;;;;;;;;5037150;28;20033;-43
2022/07/13 11:21:03;;;;;;;3.70;2.67;;;;;;;;;;5035861;28;20154;-44
2022/07/13 11:26:46;;;;;;;4.75;2.40;;;;;;;;;;5035642;28;20166;-44
2022/07/13 11:29:31;;;;;;;9.25;3.10;;;;;;;;;;5036150;28;20400;-43
2022/07/13 11:31:59;;;;;;;7.18;2.85;;;;;;;;;;5039223;28;20037;-42
2022/07/13 11:34:26;;;;;;;6.20;2.40;;;;;;;;;;5031758;28;20029;-43
2022/07/13 11:37:00;;;;;;;3.63;2.50;;;;;;;;;;5038120;28;20037;-43
2022/07/13 11:39:36;;;;;;;5.72;2.50;;;;;;;;;;5034857;28;20138;-45
2022/07/13 11:42:09;;;;;;;8.48;2.28;;;;;;;;;;5038920;28;20025;-43
2022/07/13 11:44:36;;;;;;;7.90;2.70;;;;;;;;;;5036802;28;20021;-43
2022/07/13 11:47:07;;;;;;;5.78;2.40;;;;;;;;;;5041622;28;20032;-44
2022/07/13 11:49:43;;;;;;;9.02;2.58;;;;;;;;;;5041755;28;20121;-44
2022/07/13 11:52:29;;;;;;;4.35;2.40;;;;;;;;;;5034620;28;20082;-43
2022/07/13 11:55:05;;;;;;;6.57;2.20;;;;;;;;;;5039969;28;20030;-45
2022/07/13 11:57:32;;;;;;;6.07;2.85;;;;;;;;;;5041318;28;20053;-46
2022/07/13 12:00:08;;;;;;;7.20;2.47;;;;;;;;;;5040737;28;20037;-43
2022/07/13 12:02:36;;;;;;;3.72;2.00;;;;;;;;;;5038142;28;20037;-50
2022/07/13 12:05:02;;;;;;;5.50;1.90;;;;;;;;;;5038918;28;20465;-47
2022/07/13 12:07:29;;;;;;;6.88;2.50;;;;;;;;;;5040864;28;20124;-42
2022/07/13 12:09:57;;;;;;;8.20;2.28;;;;;;;;;;5035803;28;20118;-43
2022/07/13 12:12:41;;;;;;;4.57;2.08;;;;;;;;;;5044885;28;20040;-45
2022/07/13 12:15:09;;;;;;;5.55;2.53;;;;;;;;;;5043138;28;20031;-43
2022/07/13 12:17:43;;;;;;;9.35;2.63;;;;;;;;;;5043215;28;20025;-43
2022/07/13 12:20:32;;;;;;;7.10;2.47;;;;;;;;;;5044470;28;20048;-49
2022/07/13 12:22:58;;;;;;;6.90;2.00;;;;;;;;;;5045241;28;20048;-43
2022/07/13 12:25:27;;;;;;;3.15;2.10;;;;;;;;;;5044636;28;20017;-42
2022/07/13 12:27:55;;;;;;;4.60;2.03;;;;;;;;;;5044059;28;20049;-49
2022/07/13 12:30:20;;;;;;;11.43;2.55;;;;;;;;;;5047068;28;20035;-42
2022/07/13 12:33:02;;;;;;;7.25;2.28;;;;;;;;;;5043080;28;20025;-45
2022/07/13 12:35:29;;;;;;;6.15;2.33;;;;;;;;;;5040383;28;20041;-44
2022/07/13 12:37:57;;;;;;;4.50;2.40;;;;;;;;;;5037204;28;20985;-44
2022/07/13 12:40:42;;;;;;;5.90;2.30;;;;;;;;;;5040272;28;20036;-45
2022/07/13 12:43:35;;;;;;;9.95;2.30;;;;;;;;;;5043184;28;20393;-43
2022/07/13 12:46:02;;;;;;;5.05;1.80;;;;;;;;;;5043344;28;20420;-43
2022/07/13 12:48:33;;;;;;;7.85;2.25;;;;;;;;;;5044533;28;20060;-47
2022/07/13 12:51:12;;;;;;;4.43;1.83;;;;;;;;;;5042931;28;20037;-43
2022/07/13 12:53:49;;;;;;;5.28;2.42;;;;;;;;;;5040861;28;20399;-43
2022/07/13 12:56:16;;;;;;;5.88;2.30;;;;;;;;;;5035686;28;20029;-45
2022/07/13 12:58:47;;;;;;;10.32;2.35;;;;;;;;;;5041822;28;20086;-43
2022/07/13 13:01:41;;;;;;;8.10;2.47;;;;;;;;;;5036745;28;20021;-48
2022/07/13 13:04:11;;;;;;;12.60;2.20;;;;;;;;;;5027996;28;20123;-48
2022/07/13 13:06:39;;;;;;;10.65;2.28;;;;;;;;;;5039040;28;20104;-45
2022/07/13 13:09:05;;;;;;;7.97;1.90;;;;;;;;;;5045970;28;20033;-44
2022/07/13 13:11:31;;;;;;;7.25;1.90;;;;;;;;;;5040482;28;20147;-44
2022/07/13 13:13:58;;;;;;;4.65;1.80;;;;;;;;;;5040229;28;20397;-46
2022/07/13 13:16:24;;;;;;;5.45;2.22;;;;;;;;;;5042726;28;20025;-42
2022/07/13 13:18:49;;;;;;;7.40;2.10;;;;;;;;;;5044804;28;20025;-43
2022/07/13 13:21:15;;;;;;;3.88;2.25;;;;;;;;;;5039448;28;20075;-43
2022/07/13 13:23:41;;;;;;;5.18;2.15;;;;;;;;;;5044239;28;20037;-46
2022/07/13 13:26:08;;;;;;;6.53;2.40;;;;;;;;;;5040233;28;20469;-43
2022/07/13 13:30:43;;;;;;;9.93;2.22;;;;;;;;;;5040880;28;20036;-42
2022/07/13 13:31:19;;;;;;;6.85;2.10;;;;;;;;;;5039166;28;20147;-44
2022/07/13 13:33:45;;;;;;;10.00;2.50;;;;;;;;;;5037123;28;20037;-43
2022/07/13 13:36:11;;;;;;;6.32;2.20;;;;;;;;;;5040519;28;20044;-42
2022/07/13 13:38:37;;;;;;;4.63;2.00;;;;;;;;;;5035436;28;20033;-47
2022/07/13 13:41:04;;;;;;;10.57;2.25;;;;;;;;;;5035842;28;20021;-43
2022/07/13 13:43:31;;;;;;;5.65;2.10;;;;;;;;;;5038279;28;20032;-43
2022/07/13 13:45:57;;;;;;;6.53;1.83;;;;;;;;;;5040192;28;20028;-43
2022/07/13 13:48:23;;;;;;;9.68;2.30;;;;;;;;;;5038196;28;20477;-47
2022/07/13 13:50:49;;;;;;;5.88;2.10;;;;;;;;;;5037459;28;20037;-43
2022/07/13 13:53:15;;;;;;;3.38;1.80;;;;;;;;;;5036933;28;20032;-43
2022/07/13 13:55:41;;;;;;;6.43;2.35;;;;;;;;;;5045510;28;20251;-43
2022/07/13 13:58:07;;;;;;;6.75;2.00;;;;;;;;;;5038857;28;20079;-44
2022/07/13 14:00:34;;;;;;;7.63;1.92;;;;;;;;;;5041902;28;20032;-42
2022/07/13 14:02:59;;;;;;;7.00;2.28;;;;;;;;;;5040447;28;20028;-43
2022/07/13 14:05:26;;;;;;;4.20;2.10;;;;;;;;;;5044616;28;20021;-48
2022/07/13 14:07:52;;;;;;;11.20;1.80;;;;;;;;;;5039495;28;20052;-45
2022/07/13 14:10:18;;;;;;;5.63;1.90;;;;;;;;;;5041310;28;20032;-43
2022/07/13 14:12:43;;;;;;;6.03;1.80;;;;;;;;;;5040020;28;20028;-43
2022/07/13 14:15:10;;;;;;;4.88;2.17;;;;;;;;;;5042798;28;20138;-43
2022/07/13 14:17:36;;;;;;;2.85;2.05;;;;;;;;;;5035839;28;20040;-43
2022/07/13 14:20:03;;;;;;;5.47;2.40;;;;;;;;;;5039338;28;20393;-43
2022/07/13 14:22:29;;;;;;;4.70;2.05;;;;;;;;;;5038271;28;20045;-42
2022/07/13 14:24:56;;;;;;;4.97;1.98;;;;;;;;;;5039577;28;20040;-43
2022/07/13 14:27:28;;;;;;;3.50;2.20;;;;;;;;;;5034626;28;20057;-44
2022/07/13 14:29:54;;;;;;;4.25;2.20;;;;;;;;;;5039147;28;20038;-48
2022/07/13 14:32:20;;;;;;;3.75;2.00;;;;;;;;;;5038885;28;21771;-45
2022/07/13 14:34:46;;;;;;;9.55;2.35;;;;;;;;;;5039553;28;20040;-44
2022/07/13 14:37:14;;;;;;;6.13;1.85;;;;;;;;;;5038071;28;20021;-42
2022/07/13 14:39:40;;;;;;;4.95;1.98;;;;;;;;;;5039419;28;20021;-42
2022/07/13 14:42:06;;;;;;;4.13;1.83;;;;;;;;;;5037273;28;20034;-45
2022/07/13 14:44:31;;;;;;;11.93;2.65;;;;;;;;;;5038332;28;20025;-43
2022/07/13 14:46:57;;;;;;;13.07;2.38;;;;;;;;;;5036663;28;20473;-44
2022/07/13 14:49:23;;;;;;;6.25;2.13;;;;;;;;;;5038415;28;20048;-43
2022/07/13 14:51:49;;;;;;;7.20;2.10;;;;;;;;;;5040936;28;20037;-45
2022/07/13 14:54:15;;;;;;;5.03;2.03;;;;;;;;;;5038136;28;20553;-43
2022/07/13 14:56:40;;;;;;;18.45;2.20;;;;;;;;;;5039053;28;20036;-43
2022/07/13 14:59:07;;;;;;;4.10;1.92;;;;;;;;;;5042682;28;20028;-43
2022/07/13 15:01:33;;;;;;;2.40;1.75;;;;;;;;;;5039613;28;20025;-43
2022/07/13 15:03:59;;;;;;;4.53;1.60;;;;;;;;;;5038605;28;20036;-48